Time;durP1;ratioP1;P1;durP2;ratioP2;P2;SDS_P1;SDS_P2;PMS_P1;PMS_P2;Temp;Humidity;BMP_temperature;BMP_pressure;BME280_temperature;BME280_humidity;BME280_pressure;Samples;Min_cycle;Max_cycle;Signal;HPM_P1;HPM_P2
2021/07/13 00:00:09;;;;;;;14.07;12.97;;;23.30;99.90;;;;;;5073459;28;20454;-62
2021/07/13 00:02:37;;;;;;;15.50;14.30;;;23.20;99.90;;;;;;5073854;28;20473;-63
2021/07/13 00:05:05;;;;;;;14.67;13.47;;;23.20;99.90;;;;;;5073333;28;20523;-63
2021/07/13 00:07:32;;;;;;;15.10;13.80;;;23.20;99.90;;;;;;5073729;28;20466;-63
2021/07/13 00:09:59;;;;;;;17.43;16.13;;;23.20;99.90;;;;;;5073080;28;20956;-63
2021/07/13 00:12:26;;;;;;;18.03;16.53;;;23.20;99.90;;;;;;5073712;28;20855;-63
2021/07/13 00:14:54;;;;;;;17.60;16.10;;;23.20;99.90;;;;;;5072980;28;20527;-63
2021/07/13 00:17:20;;;;;;;16.40;15.10;;;23.10;99.90;;;;;;5072524;28;20485;-63
2021/07/13 00:19:51;;;;;;;18.57;16.97;;;23.10;99.90;;;;;;5073069;28;20478;-63
2021/07/13 00:22:17;;;;;;;16.20;15.03;;;23.10;99.90;;;;;;5073377;28;20554;-64
2021/07/13 00:24:47;;;;;;;16.97;15.60;;;23.10;99.90;;;;;;5073198;28;20535;-63
2021/07/13 00:27:14;;;;;;;15.93;14.63;;;23.10;99.90;;;;;;5072940;28;21227;-63
2021/07/13 00:29:42;;;;;;;15.53;14.20;;;23.10;99.90;;;;;;5073248;28;20541;-63
2021/07/13 00:32:09;;;;;;;15.07;13.97;;;23.00;99.90;;;;;;5072721;28;20467;-63
2021/07/13 00:34:36;;;;;;;17.00;15.70;;;23.00;99.90;;;;;;5073108;28;20583;-63
2021/07/13 00:37:04;;;;;;;16.23;14.63;;;23.00;99.90;;;;;;5072594;28;20477;-63
2021/07/13 00:39:31;;;;;;;15.87;14.67;;;23.00;99.90;;;;;;5073156;28;20478;-63
2021/07/13 00:41:58;;;;;;;16.20;14.90;;;23.00;99.90;;;;;;5072718;28;20462;-63
2021/07/13 00:44:25;;;;;;;14.60;13.40;;;23.00;99.90;;;;;;5072878;28;20466;-63
2021/07/13 00:46:52;;;;;;;13.17;12.17;;;22.90;99.90;;;;;;5072730;28;20858;-63
2021/07/13 00:49:19;;;;;;;13.90;12.80;;;23.00;99.90;;;;;;5072936;28;20458;-63
2021/07/13 00:51:47;;;;;;;14.03;12.93;;;22.90;99.90;;;;;;5072942;28;20515;-63
2021/07/13 00:54:17;;;;;;;15.13;13.93;;;22.90;99.90;;;;;;5072562;28;20473;-63
2021/07/13 00:56:44;;;;;;;16.57;15.17;;;22.90;99.90;;;;;;5073101;28;20454;-63
2021/07/13 00:59:11;;;;;;;17.13;15.73;;;22.90;99.90;;;;;;5072138;28;20554;-63
2021/07/13 01:01:39;;;;;;;15.47;14.17;;;22.90;99.90;;;;;;5072888;28;20549;-63
2021/07/13 01:04:08;;;;;;;17.23;15.83;;;22.80;99.90;;;;;;5072628;28;20528;-63
2021/07/13 01:06:47;;;;;;;16.90;15.70;;;22.90;99.90;;;;;;5072683;28;20871;-63
2021/07/13 01:09:22;;;;;;;15.93;14.70;;;22.90;99.90;;;;;;5072355;28;20465;-63
2021/07/13 01:11:58;;;;;;;13.80;12.70;;;22.80;99.90;;;;;;5072817;28;20469;-63
2021/07/13 01:14:33;;;;;;;17.20;15.87;;;22.80;99.90;;;;;;5072436;28;20531;-63
2021/07/13 01:17:06;;;;;;;14.63;13.43;;;22.70;99.90;;;;;;5072477;28;20564;-61
2021/07/13 01:20:03;;;;;;;14.70;13.60;;;22.70;99.90;;;;;;5072722;28;20470;-64
2021/07/13 01:22:35;;;;;;;16.60;15.13;;;22.70;99.90;;;;;;5071124;28;21264;-62
2021/07/13 01:25:12;;;;;;;15.77;14.57;;;22.70;99.90;;;;;;5072341;28;20979;-63
2021/07/13 01:28:07;;;;;;;16.67;15.07;;;22.70;99.90;;;;;;5061592;28;21775;-63
2021/07/13 01:30:38;;;;;;;14.73;13.53;;;22.70;99.90;;;;;;5056361;28;20494;-63
2021/07/13 01:33:09;;;;;;;17.50;16.03;;;22.70;99.90;;;;;;5062597;28;20524;-63
2021/07/13 01:35:42;;;;;;;16.23;14.83;;;22.60;99.90;;;;;;5076499;28;20462;-63
2021/07/13 01:38:12;;;;;;;16.10;14.70;;;22.60;99.90;;;;;;5076467;28;20497;-63
2021/07/13 01:40:47;;;;;;;15.00;13.90;;;22.60;99.90;;;;;;5076056;28;20458;-63
2021/07/13 01:43:16;;;;;;;15.83;14.73;;;22.60;99.90;;;;;;5076475;28;20814;-63
2021/07/13 01:45:44;;;;;;;14.90;13.70;;;22.60;99.90;;;;;;5056394;28;21297;-63
2021/07/13 01:48:12;;;;;;;14.87;13.77;;;22.60;99.90;;;;;;5056056;28;20483;-63
2021/07/13 01:50:43;;;;;;;15.47;14.33;;;22.60;99.90;;;;;;5055858;28;20467;-63
2021/07/13 01:53:12;;;;;;;16.70;15.40;;;22.60;99.90;;;;;;5056474;28;20550;-63
2021/07/13 01:55:40;;;;;;;16.63;15.33;;;22.50;99.90;;;;;;5055854;28;20462;-63
2021/07/13 01:58:07;;;;;;;16.73;15.50;;;22.50;99.90;;;;;;5056121;28;20471;-62
2021/07/13 02:00:36;;;;;;;18.27;16.67;;;22.50;99.90;;;;;;5055822;28;20459;-62
2021/07/13 02:03:05;;;;;;;17.70;16.10;;;22.50;99.90;;;;;;5055872;28;20965;-63
2021/07/13 02:05:34;;;;;;;16.37;15.07;;;22.50;99.90;;;;;;5068095;28;20603;-63
2021/07/13 02:08:04;;;;;;;17.03;15.63;;;22.40;99.90;;;;;;5076077;28;20527;-63
2021/07/13 02:10:32;;;;;;;16.93;15.57;;;22.40;99.90;;;;;;5075619;28;20474;-63
2021/07/13 02:12:59;;;;;;;17.73;16.30;;;22.40;99.90;;;;;;5075963;28;20794;-63
2021/07/13 02:15:26;;;;;;;17.83;16.27;;;22.30;99.90;;;;;;5075449;28;21025;-63
2021/07/13 02:17:55;;;;;;;17.50;15.90;;;22.30;99.90;;;;;;5075659;28;20477;-63
2021/07/13 02:20:24;;;;;;;18.40;16.40;;;22.30;99.90;;;;;;5075277;28;20470;-63
2021/07/13 02:22:51;;;;;;;17.50;16.00;;;22.30;99.90;;;;;;5075990;28;20470;-63
2021/07/13 02:25:18;;;;;;;16.60;15.27;;;22.30;99.90;;;;;;5075468;28;20854;-63
2021/07/13 02:27:53;;;;;;;17.73;16.33;;;22.30;99.90;;;;;;5075153;28;20478;-63
2021/07/13 02:30:20;;;;;;;18.60;17.10;;;22.20;99.90;;;;;;5075623;28;20468;-62
2021/07/13 02:32:52;;;;;;;19.10;17.50;;;22.20;99.90;;;;;;5075244;28;21282;-63
2021/07/13 02:35:32;;;;;;;19.00;17.57;;;22.20;99.90;;;;;;5075349;28;20458;-63
2021/07/13 02:38:00;;;;;;;20.53;18.77;;;22.20;99.90;;;;;;5075813;28;20556;-63
2021/07/13 02:40:27;;;;;;;20.67;18.63;;;22.10;99.90;;;;;;5073968;28;20454;-62
2021/07/13 02:42:54;;;;;;;17.67;16.17;;;22.10;99.90;;;;;;5075188;28;20476;-62
2021/07/13 02:45:23;;;;;;;19.03;17.53;;;22.10;99.90;;;;;;5074841;28;20458;-62
2021/07/13 02:47:50;;;;;;;18.70;17.20;;;22.20;99.90;;;;;;5075340;28;20859;-63
2021/07/13 02:50:22;;;;;;;19.83;18.03;;;22.20;99.90;;;;;;5074636;28;20485;-63
2021/07/13 02:52:51;;;;;;;20.13;17.90;;;22.20;99.90;;;;;;5075340;28;20839;-63
2021/07/13 02:55:20;;;;;;;17.53;16.00;;;22.10;99.90;;;;;;5075052;28;20474;-63
2021/07/13 02:57:48;;;;;;;17.90;16.33;;;22.10;99.90;;;;;;5075101;28;20470;-63
2021/07/13 03:00:17;;;;;;;17.30;15.90;;;22.10;99.90;;;;;;5074605;28;21009;-63
2021/07/13 03:02:48;;;;;;;17.30;15.90;;;22.10;99.90;;;;;;5075136;28;20470;-63
2021/07/13 03:05:17;;;;;;;17.83;16.10;;;22.10;99.90;;;;;;5064105;28;20464;-63
2021/07/13 03:07:47;;;;;;;15.90;14.60;;;22.10;99.90;;;;;;5054831;28;20859;-62
2021/07/13 03:10:16;;;;;;;18.17;16.77;;;22.10;99.90;;;;;;5054188;28;20475;-63
2021/07/13 03:12:44;;;;;;;17.80;16.30;;;22.10;99.90;;;;;;5054911;28;20459;-63
2021/07/13 03:15:12;;;;;;;17.60;16.20;;;22.10;99.90;;;;;;5062168;28;20467;-63
2021/07/13 03:17:39;;;;;;;15.87;14.53;;;22.10;99.90;;;;;;5074651;28;20482;-63
2021/07/13 03:20:07;;;;;;;15.57;14.30;;;22.10;99.90;;;;;;5074915;28;20478;-63
2021/07/13 03:22:39;;;;;;;15.83;14.53;;;22.10;99.90;;;;;;5074243;28;20973;-63
2021/07/13 03:25:10;;;;;;;15.77;14.50;;;22.10;99.90;;;;;;5074682;28;20481;-63
2021/07/13 03:27:37;;;;;;;14.70;13.50;;;22.10;99.90;;;;;;5074297;28;20489;-63
2021/07/13 03:30:06;;;;;;;15.57;14.23;;;22.10;99.90;;;;;;5074418;28;20472;-63
2021/07/13 03:32:36;;;;;;;16.87;15.47;;;22.10;99.90;;;;;;5073869;28;20536;-63
2021/07/13 03:35:04;;;;;;;16.00;14.50;;;22.10;99.90;;;;;;5074655;28;20958;-63
2021/07/13 03:37:32;;;;;;;14.93;13.73;;;22.10;99.90;;;;;;5073612;28;20516;-63
2021/07/13 03:39:59;;;;;;;16.50;15.10;;;22.20;99.90;;;;;;5074332;28;20531;-63
2021/07/13 03:42:28;;;;;;;15.70;14.40;;;22.20;99.90;;;;;;5058734;28;20474;-62
2021/07/13 03:44:55;;;;;;;15.10;13.60;;;22.20;99.90;;;;;;5053848;28;20471;-63
2021/07/13 03:47:22;;;;;;;14.60;13.43;;;22.20;99.90;;;;;;5053400;28;20505;-63
2021/07/13 03:49:51;;;;;;;15.87;14.67;;;22.20;99.90;;;;;;5054115;28;20471;-63
2021/07/13 03:52:19;;;;;;;15.73;14.40;;;22.20;99.90;;;;;;5053393;28;20517;-63
2021/07/13 03:54:46;;;;;;;16.77;15.40;;;22.20;99.90;;;;;;5054098;28;20493;-63
2021/07/13 03:57:13;;;;;;;16.37;14.97;;;22.20;99.90;;;;;;5053917;28;20525;-63
2021/07/13 03:59:41;;;;;;;15.37;13.87;;;22.20;99.90;;;;;;5053554;28;20471;-63
2021/07/13 04:02:08;;;;;;;15.87;14.47;;;22.20;99.90;;;;;;5053937;28;20501;-63
2021/07/13 04:04:35;;;;;;;15.80;14.50;;;22.20;99.90;;;;;;5053375;28;20463;-62
2021/07/13 04:07:05;;;;;;;14.27;13.07;;;22.20;99.90;;;;;;5053878;28;20973;-63
2021/07/13 04:09:31;;;;;;;15.60;14.30;;;22.30;99.90;;;;;;5053053;28;20540;-63
2021/07/13 04:11:58;;;;;;;16.07;14.77;;;22.30;99.90;;;;;;5054207;28;20474;-62
2021/07/13 04:14:25;;;;;;;15.00;13.80;;;22.30;99.90;;;;;;5054635;28;20459;-63
2021/07/13 04:16:54;;;;;;;16.10;14.77;;;22.30;99.90;;;;;;5073728;28;20473;-63
2021/07/13 04:19:20;;;;;;;19.03;16.23;;;22.30;99.90;;;;;;5073037;28;20544;-63
2021/07/13 04:21:47;;;;;;;16.00;14.67;;;22.40;99.90;;;;;;5073439;28;20589;-63
2021/07/13 04:24:14;;;;;;;15.57;14.43;;;22.40;99.90;;;;;;5073422;28;20470;-62
2021/07/13 04:26:41;;;;;;;16.70;15.10;;;22.40;99.90;;;;;;5073139;28;20450;-63
2021/07/13 04:29:08;;;;;;;15.37;14.23;;;22.40;99.90;;;;;;5073282;28;20466;-62
2021/07/13 04:31:36;;;;;;;15.80;14.50;;;22.40;99.90;;;;;;5072883;28;20604;-62
2021/07/13 04:34:09;;;;;;;15.80;14.40;;;22.40;99.90;;;;;;5073343;28;20493;-63
2021/07/13 04:36:37;;;;;;;16.67;15.13;;;22.40;99.90;;;;;;5072806;28;20496;-63
2021/07/13 04:39:04;;;;;;;15.47;14.27;;;22.50;99.90;;;;;;5073269;28;20541;-63
2021/07/13 04:41:32;;;;;;;13.13;12.03;;;22.50;99.90;;;;;;5072661;28;20473;-62
2021/07/13 04:43:59;;;;;;;16.17;14.77;;;22.50;99.90;;;;;;5067237;28;20828;-63
2021/07/13 04:46:27;;;;;;;13.63;12.43;;;22.60;99.90;;;;;;5052799;28;20744;-63
2021/07/13 04:48:54;;;;;;;13.50;12.40;;;22.60;99.90;;;;;;5053131;28;20774;-63
2021/07/13 04:51:22;;;;;;;12.40;11.40;;;22.70;99.90;;;;;;5052372;28;20475;-64
2021/07/13 04:53:50;;;;;;;12.50;11.40;;;22.70;99.90;;;;;;5053137;28;20957;-63
2021/07/13 04:56:17;;;;;;;13.40;12.00;;;22.80;99.90;;;;;;5052968;28;20787;-63
2021/07/13 04:58:44;;;;;;;12.50;11.60;;;22.80;99.90;;;;;;5052261;28;20853;-63
2021/07/13 05:01:11;;;;;;;13.20;12.27;;;22.90;99.90;;;;;;5052919;28;20469;-62
2021/07/13 05:03:38;;;;;;;12.87;11.87;;;22.90;99.90;;;;;;5051569;28;20589;-63
2021/07/13 05:06:05;;;;;;;12.83;11.83;;;23.00;99.90;;;;;;5052847;28;20470;-63
2021/07/13 05:08:33;;;;;;;11.97;11.07;;;23.00;99.90;;;;;;5052527;28;20491;-62
2021/07/13 05:11:00;;;;;;;12.53;11.53;;;23.00;99.90;;;;;;5052615;28;20470;-63
2021/07/13 05:13:27;;;;;;;12.33;11.43;;;23.10;99.90;;;;;;5052234;28;20467;-63
2021/07/13 05:15:54;;;;;;;12.90;11.70;;;23.10;99.90;;;;;;5066554;28;20475;-62
2021/07/13 05:18:21;;;;;;;11.33;10.53;;;23.20;99.90;;;;;;5072070;28;20793;-63
2021/07/13 05:20:50;;;;;;;13.20;12.00;;;23.30;99.90;;;;;;5072839;28;20470;-63
2021/07/13 05:23:17;;;;;;;11.07;10.37;;;23.30;99.90;;;;;;5072475;28;20474;-63
2021/07/13 05:25:45;;;;;;;11.53;10.67;;;23.40;99.90;;;;;;5072146;28;20474;-63
2021/07/13 05:28:13;;;;;;;11.33;10.43;;;23.40;99.90;;;;;;5072576;28;20975;-63
2021/07/13 05:30:40;;;;;;;10.70;9.80;;;23.40;99.90;;;;;;5071974;28;20466;-63
2021/07/13 05:33:08;;;;;;;10.40;9.70;;;23.50;99.90;;;;;;5072616;28;20838;-62
2021/07/13 05:35:35;;;;;;;11.90;10.73;;;23.50;99.90;;;;;;5072215;28;20474;-63
2021/07/13 05:38:02;;;;;;;11.30;10.23;;;23.60;99.90;;;;;;5072404;28;20474;-63
2021/07/13 05:40:29;;;;;;;11.70;10.70;;;23.60;99.90;;;;;;5071947;28;20462;-63
2021/07/13 05:42:57;;;;;;;12.93;10.90;;;23.60;99.90;;;;;;5072771;28;20855;-63
2021/07/13 05:45:25;;;;;;;13.10;11.90;;;23.70;99.90;;;;;;5071964;28;20469;-62
2021/07/13 05:47:52;;;;;;;10.93;9.97;;;23.80;99.90;;;;;;5072201;28;20509;-63
2021/07/13 05:50:19;;;;;;;13.10;12.00;;;23.80;99.90;;;;;;5072414;28;20529;-63
2021/07/13 05:52:46;;;;;;;11.47;10.03;;;23.80;99.90;;;;;;5071822;28;20465;-63
2021/07/13 05:55:13;;;;;;;10.80;9.90;;;23.90;99.90;;;;;;5072356;28;20473;-63
2021/07/13 05:57:41;;;;;;;11.67;10.67;;;24.00;99.90;;;;;;5071932;28;20524;-63
2021/07/13 06:00:11;;;;;;;11.07;10.07;;;24.00;99.90;;;;;;5072240;28;20462;-63
2021/07/13 06:02:38;;;;;;;12.40;11.30;;;24.10;99.90;;;;;;5071801;28;20471;-63
2021/07/13 06:05:06;;;;;;;13.50;11.33;;;24.20;99.90;;;;;;5072499;28;20473;-63
2021/07/13 06:07:33;;;;;;;10.90;10.00;;;24.20;99.90;;;;;;5071779;28;20546;-63
2021/07/13 06:10:00;;;;;;;11.40;10.33;;;24.30;99.90;;;;;;5072054;28;20487;-63
2021/07/13 06:12:27;;;;;;;11.90;10.93;;;24.40;99.90;;;;;;5072154;28;20847;-62
2021/07/13 06:14:54;;;;;;;11.00;10.20;;;24.50;99.90;;;;;;5074317;28;20462;-63
2021/07/13 06:17:22;;;;;;;10.90;10.10;;;24.60;99.90;;;;;;5075828;28;20824;-63
2021/07/13 06:19:49;;;;;;;11.23;10.40;;;24.70;99.90;;;;;;5055641;28;20474;-63
2021/07/13 06:22:16;;;;;;;10.57;9.70;;;24.80;99.90;;;;;;5055811;28;20467;-63
2021/07/13 06:24:43;;;;;;;12.33;10.00;;;25.00;99.90;;;;;;5055198;28;20976;-63
2021/07/13 06:27:10;;;;;;;10.53;9.60;;;25.10;99.90;;;;;;5055678;28;20463;-63
2021/07/13 06:29:37;;;;;;;11.20;10.20;;;25.30;99.90;;;;;;5055116;28;20475;-63
2021/07/13 06:32:06;;;;;;;13.50;9.70;;;25.40;99.90;;;;;;5055678;28;20467;-63
2021/07/13 06:34:34;;;;;;;10.97;9.20;;;25.50;99.90;;;;;;5072942;28;20539;-64
2021/07/13 06:37:01;;;;;;;10.23;9.20;;;25.70;99.90;;;;;;5075443;28;20458;-63
2021/07/13 06:39:28;;;;;;;10.10;9.13;;;25.80;99.90;;;;;;5073461;28;20478;-62
2021/07/13 06:41:55;;;;;;;11.00;9.40;;;26.00;99.90;;;;;;5074588;28;20521;-62
2021/07/13 06:44:22;;;;;;;18.53;9.03;;;26.20;99.90;;;;;;5065481;28;20473;-62
2021/07/13 06:46:49;;;;;;;12.50;8.60;;;26.30;99.90;;;;;;5062888;28;20468;-62
2021/07/13 06:49:16;;;;;;;8.27;7.57;;;26.50;99.90;;;;;;5074121;28;20478;-63
2021/07/13 06:51:44;;;;;;;8.77;7.97;;;26.70;99.90;;;;;;5073713;28;20466;-62
2021/07/13 06:54:11;;;;;;;8.20;7.10;;;26.80;99.80;;;;;;5074474;28;21010;-63
2021/07/13 06:56:38;;;;;;;8.80;8.10;;;26.90;99.50;;;;;;5059780;28;20462;-63
2021/07/13 06:59:05;;;;;;;8.13;7.43;;;27.10;99.30;;;;;;5055038;28;20463;-62
2021/07/13 07:01:32;;;;;;;8.30;7.50;;;27.20;99.10;;;;;;5054811;28;20860;-62
2021/07/13 07:03:58;;;;;;;7.53;7.00;;;27.30;98.80;;;;;;5054972;28;20478;-62
2021/07/13 07:06:26;;;;;;;7.57;6.87;;;27.40;98.30;;;;;;5055022;28;20479;-62
2021/07/13 07:08:55;;;;;;;7.80;7.00;;;27.50;97.50;;;;;;5054770;28;20540;-62
2021/07/13 07:11:22;;;;;;;7.80;7.10;;;27.50;97.10;;;;;;5054630;28;20532;-63
2021/07/13 07:13:48;;;;;;;7.97;7.30;;;27.60;97.10;;;;;;5054452;28;20474;-63
2021/07/13 07:16:15;;;;;;;8.30;7.60;;;27.80;97.10;;;;;;5054708;28;20989;-62
2021/07/13 07:18:42;;;;;;;7.93;7.03;;;27.90;97.00;;;;;;5054154;28;20828;-62
2021/07/13 07:21:10;;;;;;;8.07;7.40;;;28.00;96.70;;;;;;5054835;28;20482;-63
2021/07/13 07:23:37;;;;;;;8.20;7.43;;;28.10;96.60;;;;;;5054492;28;20540;-63
2021/07/13 07:26:06;;;;;;;7.90;7.20;;;28.30;96.60;;;;;;5054085;28;20490;-62
2021/07/13 07:28:33;;;;;;;10.50;7.00;;;28.30;96.00;;;;;;5053941;28;20558;-63
2021/07/13 07:31:01;;;;;;;7.03;6.53;;;28.50;96.10;;;;;;5054781;28;20790;-63
2021/07/13 07:33:28;;;;;;;7.97;7.17;;;28.60;95.80;;;;;;5063355;28;20458;-62
2021/07/13 07:35:55;;;;;;;6.67;6.10;;;28.70;95.50;;;;;;5069082;28;20471;-62
2021/07/13 07:38:22;;;;;;;6.67;6.10;;;28.80;95.50;;;;;;5054248;28;20467;-62
2021/07/13 07:40:49;;;;;;;6.10;5.50;;;28.90;95.40;;;;;;5053965;28;20485;-62
2021/07/13 07:43:17;;;;;;;7.60;6.80;;;29.00;94.60;;;;;;5054498;28;20467;-63
2021/07/13 07:45:44;;;;;;;5.83;5.37;;;29.10;94.10;;;;;;5053720;28;20855;-63
2021/07/13 07:48:12;;;;;;;6.30;5.90;;;29.20;93.90;;;;;;5053927;28;20479;-63
2021/07/13 07:50:46;;;;;;;6.20;5.80;;;29.30;93.60;;;;;;5053694;28;20479;-63
2021/07/13 07:53:13;;;;;;;6.83;6.20;;;29.50;93.30;;;;;;5054089;28;20539;-63
2021/07/13 07:55:40;;;;;;;6.70;6.13;;;29.60;93.00;;;;;;5053562;28;20459;-63
2021/07/13 07:58:07;;;;;;;6.73;6.20;;;29.60;92.80;;;;;;5053374;28;20502;-63
2021/07/13 08:00:35;;;;;;;6.27;5.67;;;29.70;93.40;;;;;;5052390;28;20513;-62
2021/07/13 08:03:03;;;;;;;5.97;5.57;;;29.80;92.70;;;;;;5053677;28;20486;-63
2021/07/13 08:05:32;;;;;;;8.10;5.77;;;29.80;92.50;;;;;;5054081;28;20463;-63
2021/07/13 08:07:59;;;;;;;7.17;6.60;;;29.90;92.60;;;;;;5053332;28;20509;-62
2021/07/13 08:10:26;;;;;;;8.70;7.87;;;29.90;92.20;;;;;;5053542;28;20463;-63
2021/07/13 08:12:53;;;;;;;7.97;7.30;;;30.00;91.40;;;;;;5053266;28;20524;-63
2021/07/13 08:15:20;;;;;;;6.60;6.10;;;30.10;92.10;;;;;;5053500;28;20850;-63
2021/07/13 08:17:48;;;;;;;6.97;6.27;;;30.10;91.70;;;;;;5053080;28;20807;-63
2021/07/13 08:20:16;;;;;;;6.47;5.97;;;30.20;91.60;;;;;;5053859;28;20969;-63
2021/07/13 08:22:46;;;;;;;8.23;7.57;;;30.20;91.30;;;;;;5053233;28;20477;-62
2021/07/13 08:25:13;;;;;;;7.30;6.80;;;30.20;91.10;;;;;;5053351;28;20472;-63
2021/07/13 08:27:40;;;;;;;6.80;6.30;;;30.20;91.40;;;;;;5052974;28;20852;-63
2021/07/13 08:30:08;;;;;;;6.83;6.13;;;30.30;91.40;;;;;;5053481;28;20471;-63
2021/07/13 08:32:35;;;;;;;11.07;6.93;;;30.30;89.90;;;;;;5062963;28;20463;-63
2021/07/13 08:35:04;;;;;;;6.93;6.33;;;30.30;89.60;;;;;;5073115;28;21252;-63
2021/07/13 08:37:32;;;;;;;7.73;6.17;;;30.30;89.80;;;;;;5072186;28;20471;-63
2021/07/13 08:40:00;;;;;;;15.37;6.57;;;30.40;89.50;;;;;;5072820;28;20459;-62
2021/07/13 08:42:27;;;;;;;5.00;4.70;;;30.30;87.10;;;;;;5054912;28;20487;-62
2021/07/13 08:44:54;;;;;;;5.40;4.90;;;30.30;85.30;;;;;;5057167;28;20471;-64
2021/07/13 08:47:22;;;;;;;6.13;5.60;;;30.30;85.90;;;;;;5052780;28;20463;-63
2021/07/13 08:49:51;;;;;;;6.63;5.67;;;30.30;87.10;;;;;;5052730;28;21051;-63
2021/07/13 08:52:19;;;;;;;12.23;5.40;;;30.40;87.30;;;;;;5052808;28;20459;-62
2021/07/13 08:54:46;;;;;;;11.70;5.83;;;30.30;82.50;;;;;;5052557;28;20467;-63
2021/07/13 08:57:13;;;;;;;9.90;5.27;;;30.10;82.70;;;;;;5052963;28;20455;-63
2021/07/13 08:59:40;;;;;;;8.13;5.17;;;30.10;82.80;;;;;;5072529;28;20480;-62
2021/07/13 09:02:08;;;;;;;9.83;5.40;;;30.00;82.60;;;;;;5072935;28;20473;-63
2021/07/13 09:04:36;;;;;;;5.97;5.53;;;30.00;82.80;;;;;;5073103;28;20859;-62
2021/07/13 09:07:07;;;;;;;12.43;6.27;;;29.90;83.40;;;;;;5072359;28;20466;-63
2021/07/13 09:09:37;;;;;;;5.67;4.90;;;29.90;83.60;;;;;;5072649;28;20550;-63
2021/07/13 09:12:13;;;;;;;7.40;5.37;;;29.90;83.90;;;;;;5072404;28;20458;-63
2021/07/13 09:14:51;;;;;;;6.93;5.43;;;29.90;82.60;;;;;;5072798;28;20466;-63
2021/07/13 09:17:39;;;;;;;5.80;5.17;;;29.80;84.20;;;;;;5072791;28;20830;-63
2021/07/13 09:20:21;;;;;;;4.93;4.53;;;29.80;84.30;;;;;;5072436;28;20490;-63
2021/07/13 09:22:56;;;;;;;5.20;4.80;;;29.80;84.30;;;;;;5072546;28;20504;-63
2021/07/13 09:25:30;;;;;;;4.47;4.17;;;29.70;82.70;;;;;;5072113;28;20931;-63
2021/07/13 09:28:15;;;;;;;5.40;4.40;;;29.70;82.40;;;;;;5071738;28;20491;-63
2021/07/13 09:30:45;;;;;;;4.50;4.10;;;29.70;82.20;;;;;;5072875;28;20473;-63
2021/07/13 09:33:14;;;;;;;4.83;4.30;;;29.70;82.00;;;;;;5071968;28;21027;-62
2021/07/13 09:36:01;;;;;;;5.57;4.03;;;29.80;81.90;;;;;;5072482;28;20469;-63
2021/07/13 09:38:30;;;;;;;6.47;3.87;;;29.80;81.40;;;;;;5072446;28;21005;-63
2021/07/13 09:41:03;;;;;;;10.37;7.37;;;29.80;81.90;;;;;;5072644;28;20458;-63
2021/07/13 09:43:46;;;;;;;6.17;3.60;;;29.80;82.90;;;;;;5072120;28;20465;-63
2021/07/13 09:46:31;;;;;;;4.30;3.87;;;29.70;81.90;;;;;;5072550;28;20470;-63
2021/07/13 09:49:08;;;;;;;6.07;4.20;;;29.70;81.20;;;;;;5073160;28;20952;-63
2021/07/13 09:51:36;;;;;;;7.73;3.90;;;29.70;81.30;;;;;;5076131;28;20983;-63
2021/07/13 09:54:03;;;;;;;7.03;4.30;;;29.60;81.70;;;;;;5076297;28;20474;-63
2021/07/13 09:56:42;;;;;;;6.27;4.80;;;29.70;82.10;;;;;;5076323;28;20473;-63
2021/07/13 09:59:09;;;;;;;4.20;3.67;;;29.70;81.80;;;;;;5076606;28;20523;-63
2021/07/13 10:01:36;;;;;;;6.57;5.10;;;29.60;81.80;;;;;;5075726;28;20458;-63
2021/07/13 10:04:03;;;;;;;7.20;4.30;;;29.60;82.30;;;;;;5076417;28;20466;-63
2021/07/13 10:06:32;;;;;;;3.47;3.20;;;29.70;83.50;;;;;;5075834;28;20466;-63
2021/07/13 10:09:01;;;;;;;4.93;3.90;;;29.70;82.30;;;;;;5076010;28;20470;-63
2021/07/13 10:11:30;;;;;;;8.67;8.07;;;29.70;81.90;;;;;;5075591;28;20784;-63
2021/07/13 10:13:58;;;;;;;8.00;5.07;;;29.70;81.70;;;;;;5076170;28;20808;-63
2021/07/13 10:16:27;;;;;;;6.60;6.10;;;29.70;81.60;;;;;;5075444;28;20473;-63
2021/07/13 10:18:55;;;;;;;5.20;4.33;;;29.60;81.90;;;;;;5075755;28;20477;-63
2021/07/13 10:21:22;;;;;;;4.80;4.40;;;29.70;82.70;;;;;;5075638;28;20859;-63
2021/07/13 10:23:56;;;;;;;4.77;4.43;;;29.70;81.50;;;;;;5075814;28;20531;-63
2021/07/13 10:26:42;;;;;;;4.33;3.80;;;29.80;81.20;;;;;;5075069;28;20981;-62
2021/07/13 10:29:38;;;;;;;6.60;4.60;;;29.80;81.50;;;;;;5075458;28;20481;-62
2021/07/13 10:32:07;;;;;;;5.77;3.67;;;29.90;80.90;;;;;;5075452;28;20462;-63
2021/07/13 10:34:50;;;;;;;6.93;4.17;;;29.90;79.10;;;;;;5075388;28;20536;-63
2021/07/13 10:37:31;;;;;;;4.57;4.17;;;29.90;79.10;;;;;;5075113;28;20481;-63
2021/07/13 10:39:59;;;;;;;3.83;3.53;;;29.80;79.10;;;;;;5073350;28;20474;-62
2021/07/13 10:42:51;;;;;;;5.03;3.83;;;29.80;79.50;;;;;;5063395;28;20834;-62
2021/07/13 10:45:26;;;;;;;5.00;4.20;;;29.90;78.90;;;;;;5059826;28;21087;-62
2021/07/13 10:48:08;;;;;;;6.30;2.97;;;29.90;79.30;;;;;;5066147;28;21045;-62
2021/07/13 10:50:43;;;;;;;3.57;3.37;;;29.90;79.30;;;;;;5072015;28;20467;-63
2021/07/13 10:53:17;;;;;;;4.57;4.07;;;30.00;79.30;;;;;;5054712;28;20462;-63
2021/07/13 10:55:52;;;;;;;4.10;3.80;;;30.00;78.90;;;;;;5055173;28;21026;-62
2021/07/13 10:58:39;;;;;;;3.63;3.43;;;30.00;78.80;;;;;;5060211;28;21557;-62
2021/07/13 11:01:13;;;;;;;4.93;4.63;;;30.00;78.60;;;;;;5057168;28;21056;-63
2021/07/13 11:04:12;;;;;;;3.83;3.40;;;30.10;78.90;;;;;;5063881;28;20537;-63
2021/07/13 11:06:45;;;;;;;4.20;3.57;;;30.10;77.30;;;;;;5054363;28;20486;-62
2021/07/13 11:09:35;;;;;;;4.67;4.20;;;30.10;76.80;;;;;;5054580;28;20976;-63
2021/07/13 11:12:09;;;;;;;3.70;3.40;;;30.10;75.80;;;;;;5054364;28;20456;-63
2021/07/13 11:14:57;;;;;;;4.97;3.63;;;30.10;76.30;;;;;;5054244;28;20549;-63
2021/07/13 11:17:27;;;;;;;4.17;3.33;;;30.10;75.80;;;;;;5059360;28;20944;-62
2021/07/13 11:20:02;;;;;;;3.70;3.50;;;30.10;74.70;;;;;;5074270;28;20470;-62
2021/07/13 11:22:29;;;;;;;3.77;3.50;;;30.10;74.40;;;;;;5059015;28;20467;-62
2021/07/13 11:24:56;;;;;;;4.33;4.03;;;30.20;74.90;;;;;;5054066;28;20479;-63
2021/07/13 11:27:23;;;;;;;4.83;4.13;;;30.20;75.30;;;;;;5053806;28;20554;-63
2021/07/13 11:29:53;;;;;;;10.73;4.60;;;30.30;75.60;;;;;;5054127;28;20470;-63
2021/07/13 11:32:20;;;;;;;5.03;4.13;;;30.30;74.30;;;;;;5053890;28;20538;-63
2021/07/13 11:34:48;;;;;;;6.70;3.40;;;30.30;72.60;;;;;;5065618;28;20466;-63
2021/07/13 11:37:17;;;;;;;7.63;4.00;;;30.40;72.70;;;;;;5053764;28;20471;-62
2021/07/13 11:39:44;;;;;;;6.70;4.20;;;30.40;73.10;;;;;;5055608;28;20513;-63
2021/07/13 11:42:13;;;;;;;10.03;4.23;;;30.40;73.10;;;;;;5054168;28;20467;-63
2021/07/13 11:44:43;;;;;;;11.83;4.27;;;30.50;73.60;;;;;;5064956;28;20470;-62
2021/07/13 11:47:10;;;;;;;6.23;4.07;;;30.50;72.50;;;;;;5056878;28;20463;-63
2021/07/13 11:49:38;;;;;;;17.40;4.10;;;30.60;72.30;;;;;;5073400;28;20972;-63
2021/07/13 11:52:08;;;;;;;12.87;4.70;;;30.50;71.40;;;;;;5062760;28;20475;-63
2021/07/13 11:54:37;;;;;;;8.93;4.30;;;30.50;71.30;;;;;;5053422;28;20833;-62
2021/07/13 11:57:05;;;;;;;5.43;4.07;;;30.50;71.20;;;;;;5089103;28;20564;-63
2021/07/13 11:59:33;;;;;;;4.23;3.93;;;30.60;71.70;;;;;;5053803;28;20470;-63
2021/07/13 12:02:02;;;;;;;4.03;3.73;;;30.60;71.70;;;;;;5052874;28;20471;-63
2021/07/13 12:04:32;;;;;;;4.13;3.83;;;30.60;71.50;;;;;;5052833;28;20499;-63
2021/07/13 12:07:01;;;;;;;12.60;4.90;;;30.60;71.60;;;;;;5067759;28;20537;-63
2021/07/13 12:09:31;;;;;;;4.90;4.47;;;30.50;71.90;;;;;;5058354;28;20957;-63
2021/07/13 12:12:00;;;;;;;8.50;4.20;;;30.40;71.80;;;;;;5054308;28;20464;-63
2021/07/13 12:14:28;;;;;;;4.40;4.00;;;30.40;72.40;;;;;;5052744;28;20467;-63
2021/07/13 12:16:57;;;;;;;4.23;3.83;;;30.40;72.60;;;;;;5058478;28;20973;-62
2021/07/13 12:19:26;;;;;;;4.23;3.93;;;30.30;72.30;;;;;;5052680;28;20525;-61
2021/07/13 12:21:56;;;;;;;4.70;4.40;;;30.30;72.20;;;;;;5066789;28;20535;-62
2021/07/13 12:24:25;;;;;;;4.73;4.43;;;30.30;72.00;;;;;;5072977;28;20546;-62
2021/07/13 12:26:55;;;;;;;9.23;5.73;;;30.30;72.70;;;;;;5066345;28;20567;-62
2021/07/13 12:29:24;;;;;;;6.30;5.70;;;30.20;72.40;;;;;;5052775;28;20478;-62
2021/07/13 12:31:57;;;;;;;5.23;4.73;;;30.10;71.90;;;;;;5052282;28;20451;-62
2021/07/13 12:34:28;;;;;;;6.60;4.30;;;30.10;72.80;;;;;;5069119;28;20489;-62
2021/07/13 12:37:10;;;;;;;6.40;5.00;;;30.10;72.70;;;;;;5070442;28;20977;-62
2021/07/13 12:39:39;;;;;;;5.60;5.10;;;30.10;72.70;;;;;;5064521;28;20474;-62
2021/07/13 12:42:10;;;;;;;5.33;4.93;;;30.10;72.60;;;;;;5053869;28;20467;-62
2021/07/13 12:44:43;;;;;;;4.57;4.33;;;30.00;71.90;;;;;;5062288;28;20867;-62
2021/07/13 12:47:32;;;;;;;5.90;5.40;;;30.10;72.40;;;;;;5063374;28;20549;-63